Time;durP1;ratioP1;P1;durP2;ratioP2;P2;SDS_P1;SDS_P2;PMS_P1;PMS_P2;Temp;Humidity;BMP_temperature;BMP_pressure;BME280_temperature;BME280_humidity;BME280_pressure;Samples;Min_cycle;Max_cycle;Signal;HPM_P1;HPM_P2
2020/12/07 00:01:36;;;;;;;2.42;1.30;;;;;;;;;;5112673;28;20102;-19
2020/12/07 00:04:01;;;;;;;1.77;1.05;;;;;;;;;;5113557;28;20019;-20
2020/12/07 00:06:27;;;;;;;0.95;0.88;;;;;;;;;;5113573;28;20019;-18
2020/12/07 00:08:52;;;;;;;1.00;0.90;;;;;;;;;;5113587;28;20089;-19
2020/12/07 00:11:18;;;;;;;0.73;0.73;;;;;;;;;;5113751;28;20374;-19
2020/12/07 00:13:43;;;;;;;0.88;0.70;;;;;;;;;;5113352;28;20031;-21
2020/12/07 00:16:09;;;;;;;1.33;0.90;;;;;;;;;;5113505;28;20046;-19
2020/12/07 00:18:35;;;;;;;1.08;0.95;;;;;;;;;;5113482;28;20035;-18
2020/12/07 00:21:01;;;;;;;1.45;1.08;;;;;;;;;;5112144;28;20023;-19
2020/12/07 00:23:26;;;;;;;1.65;0.63;;;;;;;;;;5113306;28;20068;-19
2020/12/07 00:25:52;;;;;;;1.38;0.85;;;;;;;;;;5113200;28;20513;-19
2020/12/07 00:28:17;;;;;;;3.85;0.82;;;;;;;;;;5113218;28;20034;-20
2020/12/07 00:30:43;;;;;;;1.42;1.05;;;;;;;;;;5113032;28;20022;-19
2020/12/07 00:33:08;;;;;;;3.08;1.15;;;;;;;;;;5113461;28;20020;-20
2020/12/07 00:35:34;;;;;;;1.13;0.98;;;;;;;;;;5111955;28;20035;-19
2020/12/07 00:37:59;;;;;;;4.25;1.45;;;;;;;;;;5111730;28;20028;-19
2020/12/07 00:40:24;;;;;;;1.88;1.48;;;;;;;;;;5113392;28;20027;-19
2020/12/07 00:42:50;;;;;;;1.67;1.35;;;;;;;;;;5112777;27;20649;-19
2020/12/07 00:45:15;;;;;;;2.72;1.45;;;;;;;;;;5112942;28;20068;-19
2020/12/07 00:47:44;;;;;;;1.30;1.20;;;;;;;;;;5111578;28;20024;-19
2020/12/07 00:50:10;;;;;;;2.65;1.27;;;;;;;;;;5111477;28;20054;-19
2020/12/07 00:52:35;;;;;;;1.92;1.63;;;;;;;;;;5111056;28;20040;-19
2020/12/07 00:55:01;;;;;;;4.53;1.73;;;;;;;;;;5111438;28;20092;-19
2020/12/07 00:57:27;;;;;;;1.67;1.52;;;;;;;;;;5111779;28;20024;-19
2020/12/07 00:59:52;;;;;;;2.72;1.20;;;;;;;;;;5111399;28;20023;-19
2020/12/07 01:02:18;;;;;;;4.18;2.55;;;;;;;;;;5112868;28;20016;-18
2020/12/07 01:04:44;;;;;;;3.90;1.73;;;;;;;;;;5112721;28;20026;-19
2020/12/07 01:07:13;;;;;;;2.33;1.60;;;;;;;;;;5111272;28;20385;-19
2020/12/07 01:09:41;;;;;;;1.45;1.35;;;;;;;;;;5111388;28;20477;-18
2020/12/07 01:12:09;;;;;;;1.52;1.42;;;;;;;;;;5094777;28;20031;-18
2020/12/07 01:14:41;;;;;;;1.50;1.40;;;;;;;;;;5112464;28;20022;-18
2020/12/07 01:17:08;;;;;;;2.28;1.40;;;;;;;;;;5111680;28;20465;-17
2020/12/07 01:19:34;;;;;;;1.52;1.38;;;;;;;;;;5112555;28;20031;-19
2020/12/07 01:22:00;;;;;;;4.15;1.73;;;;;;;;;;5111329;28;20071;-19
2020/12/07 01:24:26;;;;;;;2.35;1.63;;;;;;;;;;5111246;28;20012;-19
2020/12/07 01:26:53;;;;;;;3.35;1.45;;;;;;;;;;5111157;28;20035;-18
2020/12/07 01:29:21;;;;;;;2.15;1.75;;;;;;;;;;5111118;28;20016;-19
2020/12/07 01:31:47;;;;;;;6.25;1.48;;;;;;;;;;5111091;28;20034;-24
2020/12/07 01:34:14;;;;;;;2.00;1.33;;;;;;;;;;5111184;28;20064;-19
2020/12/07 01:36:39;;;;;;;5.15;1.80;;;;;;;;;;5110956;28;20043;-20
2020/12/07 01:39:05;;;;;;;1.98;1.50;;;;;;;;;;5112498;28;20007;-19
2020/12/07 01:41:32;;;;;;;3.42;1.67;;;;;;;;;;5112318;28;20020;-19
2020/12/07 01:43:57;;;;;;;1.55;1.40;;;;;;;;;;5111044;28;20026;-19
2020/12/07 01:46:25;;;;;;;2.45;1.65;;;;;;;;;;5111170;28;20178;-20
2020/12/07 01:48:53;;;;;;;2.55;1.35;;;;;;;;;;5094270;28;20610;-19
2020/12/07 01:51:21;;;;;;;2.60;1.67;;;;;;;;;;5111097;28;20036;-19
2020/12/07 01:53:47;;;;;;;1.70;1.17;;;;;;;;;;5110951;28;20080;-19
2020/12/07 01:56:14;;;;;;;2.13;1.30;;;;;;;;;;5112138;28;20032;-19
2020/12/07 01:58:41;;;;;;;8.40;3.70;;;;;;;;;;5094127;28;20111;-19
2020/12/07 02:01:08;;;;;;;2.47;1.70;;;;;;;;;;5110979;28;20081;-20
2020/12/07 02:03:33;;;;;;;3.22;1.70;;;;;;;;;;5112102;28;20024;-20
2020/12/07 02:05:59;;;;;;;2.80;1.90;;;;;;;;;;5114011;28;20034;-19
2020/12/07 02:08:24;;;;;;;4.95;3.17;;;;;;;;;;5116099;28;20508;-18
2020/12/07 02:11:08;;;;;;;2.55;1.58;;;;;;;;;;5114470;28;20470;-19
2020/12/07 02:13:36;;;;;;;2.78;1.70;;;;;;;;;;5114447;28;20055;-19
2020/12/07 02:16:02;;;;;;;1.80;1.20;;;;;;;;;;5114307;28;20066;-19
2020/12/07 02:18:35;;;;;;;2.65;1.27;;;;;;;;;;5114274;28;20083;-20
2020/12/07 02:21:02;;;;;;;4.20;1.58;;;;;;;;;;5114365;28;20032;-20
2020/12/07 02:23:50;;;;;;;1.48;1.10;;;;;;;;;;5095142;28;20060;-18
2020/12/07 02:26:20;;;;;;;4.18;1.50;;;;;;;;;;5114256;28;20039;-18
2020/12/07 02:28:50;;;;;;;2.22;1.50;;;;;;;;;;5115460;28;20030;-19
2020/12/07 02:31:18;;;;;;;5.88;1.60;;;;;;;;;;5114054;28;20032;-19
2020/12/07 02:33:43;;;;;;;6.43;1.50;;;;;;;;;;5114052;28;20561;-18
2020/12/07 02:36:10;;;;;;;1.98;1.20;;;;;;;;;;5113911;28;20067;-19
2020/12/07 02:38:41;;;;;;;1.45;1.35;;;;;;;;;;5113931;28;20058;-19
2020/12/07 02:41:07;;;;;;;1.50;1.40;;;;;;;;;;5114017;28;20027;-19
2020/12/07 02:43:34;;;;;;;5.43;1.38;;;;;;;;;;5113814;28;20019;-19
2020/12/07 02:46:02;;;;;;;1.73;1.33;;;;;;;;;;5113745;28;20038;-19
2020/12/07 02:48:28;;;;;;;2.58;1.90;;;;;;;;;;5113869;28;20022;-19
2020/12/07 02:51:00;;;;;;;1.52;1.13;;;;;;;;;;5113718;28;20048;-19
2020/12/07 02:53:26;;;;;;;2.67;1.10;;;;;;;;;;5113787;28;20035;-20
2020/12/07 02:55:52;;;;;;;2.00;1.20;;;;;;;;;;5114716;28;20551;-19
2020/12/07 02:58:18;;;;;;;2.20;1.65;;;;;;;;;;5113685;28;20023;-19
2020/12/07 03:00:45;;;;;;;1.98;1.25;;;;;;;;;;5096802;28;20110;-19
2020/12/07 03:03:14;;;;;;;2.33;1.20;;;;;;;;;;5115134;28;20034;-19
2020/12/07 03:05:40;;;;;;;2.35;1.50;;;;;;;;;;5113422;28;20024;-20
2020/12/07 03:08:13;;;;;;;1.42;1.20;;;;;;;;;;5097382;28;20389;-17
2020/12/07 03:10:40;;;;;;;1.02;0.90;;;;;;;;;;5113394;28;20074;-19
2020/12/07 03:13:05;;;;;;;4.20;1.70;;;;;;;;;;5113632;28;20056;-18
2020/12/07 03:15:34;;;;;;;3.95;1.38;;;;;;;;;;5112662;28;20043;-19
2020/12/07 03:17:59;;;;;;;1.45;1.30;;;;;;;;;;5114911;28;20419;-19
2020/12/07 03:20:35;;;;;;;2.90;1.48;;;;;;;;;;5113108;28;20457;-19
2020/12/07 03:23:01;;;;;;;3.90;1.38;;;;;;;;;;5112814;28;20047;-26
2020/12/07 03:25:27;;;;;;;3.95;1.15;;;;;;;;;;5095161;28;20020;-18
2020/12/07 03:27:52;;;;;;;4.85;1.20;;;;;;;;;;5113062;28;20028;-21
2020/12/07 03:30:18;;;;;;;1.98;1.17;;;;;;;;;;5113038;28;20012;-21
2020/12/07 03:32:44;;;;;;;3.70;1.38;;;;;;;;;;5112815;28;20065;-21
2020/12/07 03:35:10;;;;;;;1.33;1.20;;;;;;;;;;5112801;28;20363;-20
2020/12/07 03:37:35;;;;;;;1.60;1.27;;;;;;;;;;5112942;28;20032;-20
2020/12/07 03:40:03;;;;;;;1.75;1.20;;;;;;;;;;5096160;28;20019;-21
2020/12/07 03:42:37;;;;;;;1.70;1.33;;;;;;;;;;5112676;28;20482;-20
2020/12/07 03:45:05;;;;;;;3.55;2.45;;;;;;;;;;5112616;28;20054;-21
2020/12/07 03:47:32;;;;;;;3.88;1.85;;;;;;;;;;5112640;28;20024;-21
2020/12/07 03:49:58;;;;;;;4.57;2.33;;;;;;;;;;5112443;28;20044;-22
2020/12/07 03:52:24;;;;;;;4.65;2.22;;;;;;;;;;5112581;28;20034;-21
2020/12/07 03:54:53;;;;;;;7.35;2.55;;;;;;;;;;5112342;28;20034;-20
2020/12/07 03:57:19;;;;;;;2.28;1.73;;;;;;;;;;5112378;28;20055;-21
2020/12/07 03:59:45;;;;;;;4.18;2.38;;;;;;;;;;5112359;28;20409;-21
2020/12/07 04:02:11;;;;;;;3.75;2.17;;;;;;;;;;5112405;28;20106;-21
2020/12/07 04:04:49;;;;;;;3.65;2.42;;;;;;;;;;5112172;28;20119;-20
2020/12/07 04:07:15;;;;;;;3.45;2.47;;;;;;;;;;5112363;28;20039;-21
2020/12/07 04:09:41;;;;;;;4.53;2.38;;;;;;;;;;5112287;28;20020;-21
2020/12/07 04:12:07;;;;;;;8.07;2.90;;;;;;;;;;5113428;28;20024;-21
2020/12/07 04:14:32;;;;;;;4.22;2.70;;;;;;;;;;5113320;28;20061;-20
2020/12/07 04:16:58;;;;;;;4.30;2.60;;;;;;;;;;5113481;28;20040;-21
2020/12/07 04:19:23;;;;;;;3.50;2.50;;;;;;;;;;5113305;28;20068;-20
2020/12/07 04:21:48;;;;;;;3.72;3.13;;;;;;;;;;5113579;28;20040;-22
2020/12/07 04:24:14;;;;;;;6.35;2.97;;;;;;;;;;5113539;28;20172;-21
2020/12/07 04:26:39;;;;;;;7.20;3.03;;;;;;;;;;5112823;28;20041;-20
2020/12/07 04:29:05;;;;;;;6.03;3.95;;;;;;;;;;5112986;28;20461;-21
2020/12/07 04:31:30;;;;;;;4.05;3.13;;;;;;;;;;5113195;28;20028;-18
2020/12/07 04:33:59;;;;;;;9.85;5.25;;;;;;;;;;5113240;28;20019;-19
2020/12/07 04:36:25;;;;;;;6.13;4.60;;;;;;;;;;5112073;28;20039;-19
2020/12/07 04:38:50;;;;;;;6.90;3.65;;;;;;;;;;5113275;28;20042;-19
2020/12/07 04:41:16;;;;;;;6.32;4.00;;;;;;;;;;5113308;28;20481;-19
2020/12/07 04:43:41;;;;;;;8.45;4.38;;;;;;;;;;5112853;28;20015;-18
2020/12/07 04:46:07;;;;;;;6.00;4.22;;;;;;;;;;5111963;28;20031;-19
2020/12/07 04:48:34;;;;;;;6.13;3.60;;;;;;;;;;5111551;28;20012;-19
2020/12/07 04:51:00;;;;;;;5.85;4.20;;;;;;;;;;5111547;28;20081;-18
2020/12/07 04:53:25;;;;;;;7.15;4.97;;;;;;;;;;5111987;28;20035;-20
2020/12/07 04:55:51;;;;;;;12.57;6.82;;;;;;;;;;5111290;28;20039;-19
2020/12/07 04:58:16;;;;;;;19.10;8.23;;;;;;;;;;5111640;28;20027;-20
2020/12/07 05:00:42;;;;;;;19.15;7.97;;;;;;;;;;5112684;28;20028;-19
2020/12/07 05:03:07;;;;;;;9.80;5.50;;;;;;;;;;5111516;28;20011;-19
2020/12/07 05:05:33;;;;;;;9.05;5.28;;;;;;;;;;5112951;28;20031;-19
2020/12/07 05:07:59;;;;;;;33.28;11.73;;;;;;;;;;5111359;28;20020;-19
2020/12/07 05:10:33;;;;;;;21.88;9.45;;;;;;;;;;5112988;28;20473;-20
2020/12/07 05:13:09;;;;;;;16.40;6.80;;;;;;;;;;5112750;28;20097;-19
2020/12/07 05:15:39;;;;;;;7.38;4.28;;;;;;;;;;5112763;28;20063;-19
2020/12/07 05:18:04;;;;;;;14.10;4.85;;;;;;;;;;5112661;28;20474;-20
2020/12/07 05:20:30;;;;;;;10.27;5.32;;;;;;;;;;5112663;28;20043;-20
2020/12/07 05:22:55;;;;;;;7.63;4.63;;;;;;;;;;5112678;28;20020;-19
2020/12/07 05:25:21;;;;;;;10.48;4.85;;;;;;;;;;5112777;28;20019;-20
2020/12/07 05:27:47;;;;;;;8.02;4.90;;;;;;;;;;5112497;28;20025;-20
2020/12/07 05:30:24;;;;;;;9.45;5.50;;;;;;;;;;5111205;28;20024;-19
2020/12/07 05:32:49;;;;;;;10.07;5.65;;;;;;;;;;5112704;28;20032;-18
2020/12/07 05:35:14;;;;;;;8.63;4.70;;;;;;;;;;5111246;28;20093;-19
2020/12/07 05:37:40;;;;;;;7.82;4.15;;;;;;;;;;5112581;28;20039;-19
2020/12/07 05:40:07;;;;;;;8.23;4.03;;;;;;;;;;5116040;28;20027;-19
2020/12/07 05:42:33;;;;;;;7.03;3.45;;;;;;;;;;5116414;28;20019;-20
2020/12/07 05:44:59;;;;;;;6.10;4.18;;;;;;;;;;5116265;28;20377;-19
2020/12/07 05:47:25;;;;;;;7.40;4.50;;;;;;;;;;5116640;28;20107;-19
2020/12/07 05:49:51;;;;;;;5.65;3.78;;;;;;;;;;5114816;28;20446;-19
2020/12/07 05:52:37;;;;;;;8.30;4.18;;;;;;;;;;5114969;28;20025;-19
2020/12/07 05:55:02;;;;;;;7.38;4.07;;;;;;;;;;5101496;28;20104;-19
2020/12/07 05:57:29;;;;;;;5.72;3.97;;;;;;;;;;5116391;28;20011;-20
2020/12/07 05:59:56;;;;;;;22.25;9.80;;;;;;;;;;5116069;28;20488;-19
2020/12/07 06:02:22;;;;;;;8.23;5.07;;;;;;;;;;5116394;28;20024;-21
2020/12/07 06:04:50;;;;;;;5.53;3.75;;;;;;;;;;5115902;28;20516;-19
2020/12/07 06:07:16;;;;;;;8.02;4.35;;;;;;;;;;5114775;28;20047;-19
2020/12/07 06:09:42;;;;;;;6.88;4.32;;;;;;;;;;5115893;28;20035;-19
2020/12/07 06:12:10;;;;;;;14.43;7.65;;;;;;;;;;5115833;28;20019;-19
2020/12/07 06:14:36;;;;;;;5.43;3.20;;;;;;;;;;5115922;28;20063;-19
2020/12/07 06:17:02;;;;;;;5.15;3.42;;;;;;;;;;5116062;28;20405;-19
2020/12/07 06:19:30;;;;;;;5.60;4.38;;;;;;;;;;5116028;28;20020;-19
2020/12/07 06:21:57;;;;;;;7.82;3.40;;;;;;;;;;5114296;28;20027;-19
2020/12/07 06:24:22;;;;;;;5.85;3.45;;;;;;;;;;5115591;28;20466;-19
2020/12/07 06:27:01;;;;;;;6.28;2.90;;;;;;;;;;5114180;28;20034;-19
2020/12/07 06:29:27;;;;;;;7.35;3.60;;;;;;;;;;5115635;28;20027;-19
2020/12/07 06:31:53;;;;;;;7.25;4.30;;;;;;;;;;5115342;28;20072;-19
2020/12/07 06:34:18;;;;;;;6.05;3.40;;;;;;;;;;5115388;28;20019;-20
2020/12/07 06:36:44;;;;;;;6.95;3.10;;;;;;;;;;5114036;28;20093;-19
2020/12/07 06:39:10;;;;;;;5.20;3.10;;;;;;;;;;5115452;28;20027;-20
2020/12/07 06:41:37;;;;;;;5.35;3.55;;;;;;;;;;5115236;28;20492;-20
2020/12/07 06:44:07;;;;;;;7.30;3.42;;;;;;;;;;5115435;28;20051;-21
2020/12/07 06:46:49;;;;;;;6.15;4.35;;;;;;;;;;5113847;28;20041;-18
2020/12/07 06:49:16;;;;;;;4.80;2.75;;;;;;;;;;5113692;28;20039;-18
2020/12/07 06:51:45;;;;;;;5.53;2.85;;;;;;;;;;5114359;28;20024;-19
2020/12/07 06:55:03;;;;;;;3.53;2.63;;;;;;;;;;5115063;28;20024;-19
2020/12/07 06:57:17;;;;;;;5.78;3.90;;;;;;;;;;5114804;28;20451;-19
2020/12/07 06:59:51;;;;;;;4.80;2.67;;;;;;;;;;5114891;28;20023;-19
2020/12/07 07:02:17;;;;;;;6.47;3.20;;;;;;;;;;5113657;28;20028;-20
2020/12/07 07:04:49;;;;;;;8.90;3.38;;;;;;;;;;5114846;28;20016;-18
2020/12/07 07:07:22;;;;;;;5.70;3.40;;;;;;;;;;5115047;28;20027;-19
2020/12/07 07:09:48;;;;;;;5.15;3.60;;;;;;;;;;5113432;28;20023;-19
2020/12/07 07:12:13;;;;;;;4.50;3.28;;;;;;;;;;5114628;28;20466;-18
2020/12/07 07:14:40;;;;;;;8.70;2.95;;;;;;;;;;5114523;28;20039;-19
2020/12/07 07:17:06;;;;;;;6.13;2.97;;;;;;;;;;5114637;27;20046;-17
2020/12/07 07:19:31;;;;;;;5.10;3.15;;;;;;;;;;5114552;28;20470;-18
2020/12/07 07:21:57;;;;;;;3.90;3.08;;;;;;;;;;5113066;28;20428;-18
2020/12/07 07:24:24;;;;;;;2.85;1.92;;;;;;;;;;5113015;28;20024;-18
2020/12/07 07:26:50;;;;;;;5.07;2.60;;;;;;;;;;5114656;28;20028;-20
2020/12/07 07:29:16;;;;;;;4.57;2.53;;;;;;;;;;5114381;28;20173;-19
2020/12/07 07:31:42;;;;;;;4.22;2.67;;;;;;;;;;5114494;28;20015;-19
2020/12/07 07:34:08;;;;;;;2.80;2.10;;;;;;;;;;5112891;28;20470;-18
2020/12/07 07:36:34;;;;;;;3.20;2.33;;;;;;;;;;5112871;28;20024;-19
2020/12/07 07:39:00;;;;;;;4.57;2.10;;;;;;;;;;5114402;28;20061;-19
2020/12/07 07:41:29;;;;;;;3.50;1.98;;;;;;;;;;5113197;28;20538;-19
2020/12/07 07:43:55;;;;;;;5.00;2.30;;;;;;;;;;5114254;28;20020;-19
2020/12/07 07:46:21;;;;;;;4.35;2.72;;;;;;;;;;5112684;28;20416;-19
2020/12/07 08:00:27;;;;;;;4.13;2.72;;;;;;;;;;5113919;28;20051;-18
2020/12/07 08:12:07;;;;;;;14.15;5.47;;;;;;;;;;5113597;28;20063;-21
2020/12/07 08:12:17;;;;;;;3.15;2.45;;;;;;;;;;5113577;28;20028;-19
2020/12/07 08:16:56;;;;;;;5.30;4.05;;;;;;;;;;5113638;28;20405;-19
2020/12/07 08:19:22;;;;;;;4.40;2.30;;;;;;;;;;5113376;28;20026;-19
2020/12/07 08:21:48;;;;;;;3.58;2.70;;;;;;;;;;5112049;28;20046;-19
2020/12/07 08:24:13;;;;;;;4.15;2.35;;;;;;;;;;5113537;28;20438;-19
2020/12/07 08:26:42;;;;;;;6.47;4.32;;;;;;;;;;5113282;28;20032;-19
2020/12/07 08:29:08;;;;;;;7.10;3.25;;;;;;;;;;5113519;28;20012;-19
2020/12/07 08:31:34;;;;;;;3.70;2.53;;;;;;;;;;5113237;28;20512;-19
2020/12/07 08:34:01;;;;;;;4.60;2.05;;;;;;;;;;5112985;28;20412;-19
2020/12/07 08:36:28;;;;;;;2.00;1.63;;;;;;;;;;5113026;28;20172;-19
2020/12/07 08:38:53;;;;;;;1.80;1.42;;;;;;;;;;5113373;28;20031;-19
2020/12/07 08:41:20;;;;;;;2.35;1.50;;;;;;;;;;5111786;28;20023;-19
2020/12/07 08:43:47;;;;;;;7.93;2.60;;;;;;;;;;5113084;28;20454;-19
2020/12/07 08:46:14;;;;;;;4.90;2.63;;;;;;;;;;5112978;28;20038;-19
2020/12/07 08:48:39;;;;;;;2.22;1.67;;;;;;;;;;5112889;28;20007;-19
2020/12/07 08:51:05;;;;;;;6.47;3.63;;;;;;;;;;5112789;28;20406;-19
2020/12/07 08:53:31;;;;;;;11.05;6.70;;;;;;;;;;5111661;28;20043;-20
2020/12/07 08:55:57;;;;;;;6.40;3.72;;;;;;;;;;5112649;28;20043;-19
2020/12/07 08:58:22;;;;;;;7.05;4.07;;;;;;;;;;5112916;28;20043;-20
2020/12/07 09:00:47;;;;;;;6.18;3.60;;;;;;;;;;5113026;28;20664;-17
2020/12/07 09:03:13;;;;;;;5.00;3.00;;;;;;;;;;5112646;28;20451;-19
2020/12/07 09:05:39;;;;;;;3.85;2.75;;;;;;;;;;5112729;28;20069;-20
2020/12/07 09:08:08;;;;;;;5.88;2.72;;;;;;;;;;5113083;28;20020;-19
2020/12/07 09:10:34;;;;;;;7.93;5.32;;;;;;;;;;5112666;28;20038;-19
2020/12/07 09:12:59;;;;;;;5.20;2.63;;;;;;;;;;5112715;28;20023;-21
2020/12/07 09:15:25;;;;;;;2.03;1.67;;;;;;;;;;5116861;28;20126;-18
2020/12/07 09:17:51;;;;;;;2.20;1.42;;;;;;;;;;5115520;28;20012;-18
2020/12/07 09:20:16;;;;;;;2.22;1.95;;;;;;;;;;4757223;28;10000523;-19
2020/12/07 09:22:41;;;;;;;3.72;1.80;;;;;;;;;;5092641;28;20023;-19
2020/12/07 09:25:08;;;;;;;3.08;2.50;;;;;;;;;;5092923;28;20020;-21
2020/12/07 09:27:34;;;;;;;3.42;2.00;;;;;;;;;;5091515;28;20153;-22
2020/12/07 09:30:01;;;;;;;2.55;2.22;;;;;;;;;;5092617;28;20028;-23
2020/12/07 09:32:28;;;;;;;2.22;1.60;;;;;;;;;;5109508;28;20020;-21
2020/12/07 09:34:55;;;;;;;1.98;1.58;;;;;;;;;;5111632;28;20051;-21
2020/12/07 09:37:20;;;;;;;1.20;0.90;;;;;;;;;;5112967;28;20490;-19
2020/12/07 09:39:46;;;;;;;0.68;0.68;;;;;;;;;;5113172;28;20084;-21
2020/12/07 09:42:11;;;;;;;1.83;1.10;;;;;;;;;;5112871;28;20370;-19
2020/12/07 09:44:37;;;;;;;1.50;0.90;;;;;;;;;;5112741;28;20032;-18
2020/12/07 09:47:02;;;;;;;1.75;1.40;;;;;;;;;;5113098;28;20471;-19
2020/12/07 09:49:28;;;;;;;1.17;1.08;;;;;;;;;;5111539;28;20089;-18
2020/12/07 09:51:53;;;;;;;1.02;0.98;;;;;;;;;;5111887;28;20031;-20
2020/12/07 09:54:19;;;;;;;0.90;0.70;;;;;;;;;;5112907;28;20081;-19
2020/12/07 09:56:44;;;;;;;0.75;0.70;;;;;;;;;;5112263;28;20024;-19
2020/12/07 09:59:10;;;;;;;1.02;0.60;;;;;;;;;;5112916;28;20020;-19
2020/12/07 10:01:36;;;;;;;1.60;0.35;;;;;;;;;;5111834;28;20019;-19
2020/12/07 10:04:02;;;;;;;0.82;0.50;;;;;;;;;;5112652;28;20046;-27
2020/12/07 10:06:28;;;;;;;0.70;0.60;;;;;;;;;;5112553;28;20023;-19
2020/12/07 10:08:54;;;;;;;0.80;0.60;;;;;;;;;;5112383;28;20118;-20
2020/12/07 10:11:20;;;;;;;0.75;0.55;;;;;;;;;;5111386;28;20489;-20
2020/12/07 10:13:47;;;;;;;1.90;0.60;;;;;;;;;;5111212;28;20027;-20
2020/12/07 10:16:13;;;;;;;1.17;0.80;;;;;;;;;;5112497;28;20034;-19
2020/12/07 10:18:39;;;;;;;1.50;0.57;;;;;;;;;;5112420;28;20538;-20
2020/12/07 10:21:04;;;;;;;1.20;0.90;;;;;;;;;;5111862;28;20028;-19
2020/12/07 10:23:30;;;;;;;1.05;0.75;;;;;;;;;;5112087;28;20039;-20
2020/12/07 10:25:55;;;;;;;2.65;0.80;;;;;;;;;;5110783;28;20465;-20
2020/12/07 10:28:21;;;;;;;1.15;0.73;;;;;;;;;;5111801;28;20103;-19
2020/12/07 10:30:46;;;;;;;1.70;0.65;;;;;;;;;;5111640;28;20008;-19
2020/12/07 10:33:12;;;;;;;1.35;0.70;;;;;;;;;;5111517;28;20015;-20
2020/12/07 10:35:37;;;;;;;1.77;0.75;;;;;;;;;;5110203;28;20024;-20
2020/12/07 10:38:03;;;;;;;0.57;0.57;;;;;;;;;;5111705;28;20062;-20
2020/12/07 10:40:29;;;;;;;1.63;0.82;;;;;;;;;;5110526;28;20012;-20
2020/12/07 10:42:54;;;;;;;1.25;0.65;;;;;;;;;;5112152;28;20043;-20
2020/12/07 10:45:20;;;;;;;1.05;0.65;;;;;;;;;;5111105;28;20458;-19
2020/12/07 10:47:45;;;;;;;2.38;0.73;;;;;;;;;;5111345;28;20035;-18
2020/12/07 10:50:11;;;;;;;1.20;0.77;;;;;;;;;;5111273;28;20036;-19
2020/12/07 10:52:36;;;;;;;0.52;0.40;;;;;;;;;;5111396;28;20431;-19
2020/12/07 10:55:02;;;;;;;2.90;0.57;;;;;;;;;;5111310;28;20422;-20
2020/12/07 10:57:27;;;;;;;1.35;0.70;;;;;;;;;;5111062;28;20091;-18
2020/12/07 10:59:53;;;;;;;1.65;0.52;;;;;;;;;;5090334;28;20031;-20
2020/12/07 11:02:19;;;;;;;1.00;0.60;;;;;;;;;;5090939;28;20032;-20
2020/12/07 11:04:44;;;;;;;1.25;0.70;;;;;;;;;;5089231;28;20020;-20
2020/12/07 11:07:14;;;;;;;1.48;1.10;;;;;;;;;;5089268;28;20020;-20
2020/12/07 11:09:39;;;;;;;0.80;0.57;;;;;;;;;;5090112;28;20055;-19
2020/12/07 11:12:11;;;;;;;1.15;0.70;;;;;;;;;;5090655;28;20050;-20
2020/12/07 11:14:36;;;;;;;1.88;0.52;;;;;;;;;;5090468;28;20051;-19
2020/12/07 11:17:02;;;;;;;1.60;0.80;;;;;;;;;;5088965;28;20032;-20
2020/12/07 11:19:27;;;;;;;1.92;0.85;;;;;;;;;;5090216;28;20028;-21
2020/12/07 11:21:53;;;;;;;0.80;0.80;;;;;;;;;;5094697;28;20031;-20
2020/12/07 11:24:18;;;;;;;0.75;0.75;;;;;;;;;;5090858;28;20603;-20
2020/12/07 11:26:43;;;;;;;1.25;0.70;;;;;;;;;;5091001;28;20373;-20
2020/12/07 11:29:09;;;;;;;3.13;1.15;;;;;;;;;;5090864;28;20032;-19
2020/12/07 11:31:34;;;;;;;1.95;1.33;;;;;;;;;;5090599;28;20028;-21
2020/12/07 11:34:00;;;;;;;3.15;0.88;;;;;;;;;;5090142;28;20056;-21
2020/12/07 11:36:25;;;;;;;0.85;0.80;;;;;;;;;;5092275;28;20492;-20
2020/12/07 11:41:45;;;;;;;0.68;0.65;;;;;;;;;;5094041;28;20032;-20
2020/12/07 11:46:43;;;;;;;2.28;0.90;;;;;;;;;;5092381;28;20360;-20
2020/12/07 11:49:09;;;;;;;0.98;0.80;;;;;;;;;;5093516;28;20670;-20
2020/12/07 11:51:34;;;;;;;2.85;0.68;;;;;;;;;;5093691;28;20085;-19
2020/12/07 11:54:00;;;;;;;1.73;1.20;;;;;;;;;;5092107;28;20032;-20
2020/12/07 11:56:26;;;;;;;1.35;0.70;;;;;;;;;;5093723;28;20028;-20
2020/12/07 11:58:52;;;;;;;3.35;1.17;;;;;;;;;;5093360;28;20107;-19
2020/12/07 12:01:17;;;;;;;1.30;1.10;;;;;;;;;;5093359;28;20058;-20
2020/12/07 12:03:43;;;;;;;1.08;0.80;;;;;;;;;;5093332;28;20119;-20
2020/12/07 12:06:08;;;;;;;1.75;0.85;;;;;;;;;;5093390;28;20577;-18
2020/12/07 12:08:34;;;;;;;1.38;0.88;;;;;;;;;;5092263;28;20099;-20
2020/12/07 12:10:59;;;;;;;1.08;0.60;;;;;;;;;;5093092;28;20470;-26
2020/12/07 12:13:25;;;;;;;1.77;1.02;;;;;;;;;;5093165;28;20024;-20
2020/12/07 12:15:50;;;;;;;0.52;0.52;;;;;;;;;;5092875;28;20032;-19
2020/12/07 12:18:16;;;;;;;0.85;0.57;;;;;;;;;;5091885;28;20035;-19
2020/12/07 12:20:44;;;;;;;0.95;0.68;;;;;;;;;;5092951;28;20016;-20
2020/12/07 12:23:10;;;;;;;0.70;0.45;;;;;;;;;;5092989;28;20048;-20
2020/12/07 12:25:39;;;;;;;1.75;1.25;;;;;;;;;;5091581;28;20020;-20
2020/12/07 12:28:04;;;;;;;0.98;0.75;;;;;;;;;;5093194;28;20099;-19
2020/12/07 12:30:29;;;;;;;1.40;1.23;;;;;;;;;;5092527;28;20142;-20
2020/12/07 12:32:55;;;;;;;0.77;0.75;;;;;;;;;;5091513;28;20024;-19
2020/12/07 12:35:21;;;;;;;2.40;0.90;;;;;;;;;;5093020;28;20478;-20
2020/12/07 12:37:46;;;;;;;1.25;0.80;;;;;;;;;;5091384;28;20058;-20
2020/12/07 12:40:12;;;;;;;1.55;0.80;;;;;;;;;;5093108;28;20016;-21
2020/12/07 12:42:37;;;;;;;1.52;1.42;;;;;;;;;;5092797;28;20050;-21
2020/12/07 12:45:03;;;;;;;7.80;4.30;;;;;;;;;;5092359;28;20031;-20
2020/12/07 12:47:28;;;;;;;1.80;1.20;;;;;;;;;;5092550;28;20031;-21
2020/12/07 12:49:54;;;;;;;2.08;0.98;;;;;;;;;;5090582;28;20131;-20
2020/12/07 12:52:19;;;;;;;1.60;0.90;;;;;;;;;;5092222;28;20578;-20
2020/12/07 12:54:44;;;;;;;1.14;0.73;;;;;;;;;;4739189;28;10001179;-20
2020/12/07 12:57:11;;;;;;;2.20;1.88;;;;;;;;;;5109520;28;20039;-20
2020/12/07 12:59:38;;;;;;;1.73;1.63;;;;;;;;;;5109048;28;20051;-21
2020/12/07 13:02:06;;;;;;;3.17;1.50;;;;;;;;;;5108669;28;20039;-21
2020/12/07 13:04:34;;;;;;;1.80;1.70;;;;;;;;;;5108897;28;20015;-20
2020/12/07 13:07:00;;;;;;;1.33;0.80;;;;;;;;;;5106776;28;20059;-18
2020/12/07 13:09:25;;;;;;;1.05;0.70;;;;;;;;;;5109070;28;20458;-20
2020/12/07 13:11:51;;;;;;;0.93;0.80;;;;;;;;;;5108949;28;20058;-18
2020/12/07 13:14:17;;;;;;;1.88;0.90;;;;;;;;;;5108895;28;20024;-19
2020/12/07 13:16:57;;;;;;;0.70;0.50;;;;;;;;;;5107845;28;20092;-19
2020/12/07 13:19:23;;;;;;;1.15;0.70;;;;;;;;;;5108662;28;20381;-19
2020/12/07 13:21:56;;;;;;;0.80;0.50;;;;;;;;;;5109195;28;20024;-19
2020/12/07 13:24:37;;;;;;;1.10;0.70;;;;;;;;;;5108790;28;20817;-19
2020/12/07 13:29:28;;;;;;;1.48;0.93;;;;;;;;;;5109059;28;20489;-20
2020/12/07 13:31:54;;;;;;;1.60;0.60;;;;;;;;;;5106830;28;20032;-19
2020/12/07 13:34:19;;;;;;;1.80;0.30;;;;;;;;;;5108560;28;20035;-20
2020/12/07 13:36:45;;;;;;;0.52;0.52;;;;;;;;;;5107630;28;20040;-20
2020/12/07 13:39:10;;;;;;;0.60;0.60;;;;;;;;;;5109217;28;20030;-24
2020/12/07 13:41:36;;;;;;;1.30;0.70;;;;;;;;;;5108290;28;20543;-17
2020/12/07 13:44:01;;;;;;;1.27;0.60;;;;;;;;;;5107605;28;20023;-19
2020/12/07 13:46:27;;;;;;;0.52;0.52;;;;;;;;;;5108905;28;20114;-19
2020/12/07 13:48:53;;;;;;;1.27;0.90;;;;;;;;;;5108008;28;20022;-19
2020/12/07 13:51:19;;;;;;;0.82;0.70;;;;;;;;;;5107303;28;20478;-20
2020/12/07 13:53:45;;;;;;;0.70;0.70;;;;;;;;;;5108107;28;20085;-19
2020/12/07 13:56:11;;;;;;;1.02;0.70;;;;;;;;;;5106836;28;20104;-20
2020/12/07 13:58:36;;;;;;;1.55;1.00;;;;;;;;;;5108383;28;20019;-18
2020/12/07 14:01:02;;;;;;;1.20;0.90;;;;;;;;;;5112133;28;20031;-19
2020/12/07 14:03:32;;;;;;;1.52;0.90;;;;;;;;;;5112668;28;20500;-18
2020/12/07 14:05:58;;;;;;;2.65;1.10;;;;;;;;;;5111978;28;20027;-20
2020/12/07 14:08:23;;;;;;;1.60;0.93;;;;;;;;;;5112218;28;20019;-19
2020/12/07 14:10:49;;;;;;;0.60;0.52;;;;;;;;;;5099867;28;20043;-20
2020/12/07 14:13:14;;;;;;;1.45;1.05;;;;;;;;;;5112051;28;20061;-19
2020/12/07 14:15:40;;;;;;;1.45;0.70;;;;;;;;;;5110324;28;20071;-20
2020/12/07 14:18:12;;;;;;;1.52;0.77;;;;;;;;;;5111517;28;20019;-20
2020/12/07 14:23:17;;;;;;;1.60;1.50;;;;;;;;;;5112608;28;20039;-19
2020/12/07 14:25:53;;;;;;;0.90;0.73;;;;;;;;;;5110994;28;20458;-19
2020/12/07 14:41:31;;;;;;;0.65;0.57;;;;;;;;;;5111964;28;20039;-19
2020/12/07 14:43:56;;;;;;;0.80;0.55;;;;;;;;;;5111123;28;20023;-22
2020/12/07 14:46:23;;;;;;;0.77;0.68;;;;;;;;;;5110184;28;20105;-19
2020/12/07 14:48:49;;;;;;;1.02;0.93;;;;;;;;;;5111655;28;20031;-20
2020/12/07 14:51:27;;;;;;;1.52;0.90;;;;;;;;;;5112057;28;20047;-18
2020/12/07 14:54:02;;;;;;;1.80;0.80;;;;;;;;;;5111265;28;20420;-18
2020/12/07 14:56:39;;;;;;;9.95;4.63;;;;;;;;;;5111423;28;20041;-19
2020/12/07 15:06:44;;;;;;;1.35;0.68;;;;;;;;;;5110601;28;20035;-18
2020/12/07 15:10:26;;;;;;;1.70;1.08;;;;;;;;;;5109574;28;20053;-18
2020/12/07 15:12:18;;;;;;;2.40;0.60;;;;;;;;;;5110020;28;20785;-19
2020/12/07 15:14:43;;;;;;;0.50;0.50;;;;;;;;;;5110649;28;20106;-19
2020/12/07 15:17:09;;;;;;;0.90;0.55;;;;;;;;;;5110968;28;20162;-19
2020/12/07 15:19:34;;;;;;;0.95;0.82;;;;;;;;;;5110177;28;20043;-19
2020/12/07 15:22:00;;;;;;;1.23;1.05;;;;;;;;;;5110624;28;20118;-17
2020/12/07 15:24:25;;;;;;;1.25;0.77;;;;;;;;;;5110881;28;20028;-18
2020/12/07 15:26:52;;;;;;;2.28;1.88;;;;;;;;;;5110651;28;20702;-21
2020/12/07 15:29:18;;;;;;;1.48;1.35;;;;;;;;;;5109708;28;20038;-19
2020/12/07 15:31:44;;;;;;;1.23;0.65;;;;;;;;;;5109304;28;20667;-19
2020/12/07 15:34:09;;;;;;;0.93;0.60;;;;;;;;;;5103796;28;20023;-19